Terminal Aerodrome Forecast
Issued by NWS

Home | Current Version | Previous Version | Text Only | Print | Product List | Glossary On
Versions: 1 2 3 4 5 6 7 8 9 10 11 12 13 14 15
000
FTUS43 KICT 151100
TAFSLN
TAF
KSLN 151120Z 1512/1612 23006KT P6SM SKC
     FM151500 22011KT P6SM SKC
     FM151800 20016G24KT P6SM SKC
     FM152100 19020G28KT P6SM SCT250
     FM160100 17015G21KT P6SM SCT250
     FM160700 18018G25KT P6SM SCT250=

USA.gov is the U.S. government's official web portal to all federal, state and local government web resources and services.